createdAt,value
2019-06-01T00:02:13.403Z,8.03
2019-06-01T00:05:16.235Z,9.15
2019-06-01T00:08:29.597Z,8.57
2019-06-01T00:11:30.417Z,8.90
2019-06-01T00:14:43.588Z,8.80
2019-06-01T00:17:47.981Z,8.13
2019-06-01T00:20:55.697Z,8.70
2019-06-01T00:24:05.843Z,9.88
2019-06-01T00:27:16.649Z,8.15
2019-06-01T00:30:27.187Z,10.03
2019-06-01T00:33:39.184Z,8.30
2019-06-01T00:36:45.653Z,9.95
2019-06-01T00:39:50.440Z,9.83
2019-06-01T00:43:02.043Z,11.00
2019-06-01T00:46:11.952Z,10.60
2019-06-01T00:49:21.344Z,10.43
2019-06-01T00:52:26.176Z,9.95
2019-06-01T00:55:30.451Z,11.78
2019-06-01T00:58:35.343Z,11.60
2019-06-01T01:01:43.756Z,10.85
2019-06-01T01:04:52.549Z,10.23
2019-06-01T01:08:08.069Z,10.93
2019-06-01T01:11:12.102Z,9.60
2019-06-01T01:14:20.952Z,10.10
2019-06-01T01:17:32.006Z,10.77
2019-06-01T01:20:33.205Z,10.90
2019-06-01T01:23:37.420Z,10.83
2019-06-01T01:26:44.682Z,10.73
2019-06-01T01:29:58.626Z,12.13
2019-06-01T01:33:09.638Z,9.10
2019-06-01T01:36:10.357Z,9.33
2019-06-01T01:39:20.560Z,10.23
2019-06-01T01:42:16.882Z,10.03
2019-06-01T01:45:12.459Z,12.20
2019-06-01T01:48:12.847Z,9.63
2019-06-01T01:51:04.705Z,8.30
2019-06-01T01:54:24.414Z,8.80
2019-06-01T01:57:25.142Z,8.53
2019-06-01T02:00:30.534Z,8.40
2019-06-01T02:03:35.046Z,9.33
2019-06-01T02:06:40.471Z,8.47
2019-06-01T02:09:40.940Z,8.43
2019-06-01T02:12:36.050Z,7.53
2019-06-01T02:15:38.627Z,7.60
2019-06-01T02:18:36.345Z,7.85
2019-06-01T02:21:36.975Z,7.27
2019-06-01T02:24:31.787Z,7.30
2019-06-01T02:27:36.621Z,8.57
2019-06-01T02:30:31.230Z,7.37
2019-06-01T02:33:25.697Z,7.03
2019-06-01T02:36:32.315Z,7.60
2019-06-01T02:39:23.019Z,7.53
2019-06-01T02:42:41.491Z,7.60
2019-06-01T02:45:15.963Z,7.30
2019-06-01T02:48:28.336Z,8.40
2019-06-01T02:51:27.236Z,21.50
2019-06-01T02:54:27.380Z,7.93
2019-06-01T02:57:23.023Z,7.67
2019-06-01T03:00:17.064Z,8.87
2019-06-01T03:02:48.088Z,8.67
2019-06-01T03:05:18.962Z,9.27
2019-06-01T03:07:50.357Z,12.10
2019-06-01T03:10:20.090Z,11.53
2019-06-01T03:12:53.037Z,12.00
2019-06-01T03:15:22.741Z,13.80
2019-06-01T03:17:54.707Z,14.43
2019-06-01T03:20:25.073Z,14.47
2019-06-01T03:22:57.735Z,15.40
2019-06-01T03:25:29.530Z,14.73
2019-06-01T03:28:02.308Z,14.73
2019-06-01T03:30:45.607Z,14.27
2019-06-01T03:33:14.383Z,16.70
2019-06-01T03:35:45.469Z,14.37
2019-06-01T03:38:15.402Z,18.17
2019-06-01T03:40:45.415Z,16.73
2019-06-01T03:43:15.104Z,16.47
2019-06-01T03:45:45.013Z,12.53
2019-06-01T03:48:14.878Z,14.33
2019-06-01T03:50:44.761Z,12.27
2019-06-01T03:53:14.418Z,10.60
2019-06-01T03:55:43.619Z,12.60
2019-06-01T03:58:13.630Z,13.90
2019-06-01T04:00:43.413Z,11.67
2019-06-01T04:03:13.647Z,9.97
2019-06-01T04:05:43.455Z,12.53
2019-06-01T04:08:13.636Z,13.10
2019-06-01T04:10:43.582Z,14.70
2019-06-01T04:13:13.664Z,13.48
2019-06-01T04:15:43.390Z,15.35
2019-06-01T04:18:13.912Z,15.55
2019-06-01T04:20:44.455Z,15.40
2019-06-01T04:23:14.239Z,17.20
2019-06-01T04:25:44.233Z,14.10
2019-06-01T04:28:14.079Z,17.62
2019-06-01T04:30:43.984Z,16.10
2019-06-01T04:33:13.747Z,15.60
2019-06-01T04:35:43.666Z,16.40
2019-06-01T04:38:14.486Z,15.32
2019-06-01T04:40:44.149Z,15.80
2019-06-01T04:43:14.171Z,17.33
2019-06-01T04:45:44.884Z,17.12
2019-06-01T04:48:14.729Z,19.55
2019-06-01T04:50:44.396Z,17.17
2019-06-01T04:53:15.112Z,17.70
2019-06-01T04:55:45.285Z,19.37
2019-06-01T04:58:15.158Z,17.35
2019-06-01T05:00:45.265Z,17.87
2019-06-01T05:03:15.685Z,17.37
2019-06-01T05:05:45.472Z,16.75
2019-06-01T05:08:17.129Z,17.67
2019-06-01T05:10:47.999Z,24.35
2019-06-01T05:13:19.231Z,18.93
2019-06-01T05:15:49.258Z,19.37
2019-06-01T05:18:20.057Z,18.30
2019-06-01T05:20:50.814Z,15.72
2019-06-01T05:23:20.589Z,17.07
2019-06-01T05:25:53.150Z,15.20
2019-06-01T05:28:21.607Z,18.63
2019-06-01T05:30:51.425Z,18.17
2019-06-01T05:33:36.869Z,18.80
2019-06-01T05:35:56.666Z,18.42
2019-06-01T05:38:26.737Z,18.67
2019-06-01T05:40:56.502Z,18.17
2019-06-01T05:43:26.212Z,17.37
2019-06-01T05:45:55.777Z,15.08
2019-06-01T05:48:29.851Z,18.37
2019-06-01T05:50:56.737Z,17.52
2019-06-01T05:53:26.482Z,19.82
2019-06-01T05:55:56.155Z,19.92
2019-06-01T05:58:29.119Z,21.05
2019-06-01T06:00:57.150Z,20.15
2019-06-01T06:03:40.013Z,19.98
2019-06-01T06:05:58.274Z,20.32
2019-06-01T06:08:27.909Z,19.87
2019-06-01T06:10:58.571Z,19.95
2019-06-01T06:13:28.169Z,19.98
2019-06-01T06:15:57.940Z,18.12
2019-06-01T06:18:27.508Z,16.32
2019-06-01T06:20:57.208Z,18.75
2019-06-01T06:23:26.863Z,16.10
2019-06-01T06:25:56.523Z,15.72
2019-06-01T06:28:26.831Z,15.98
2019-06-01T06:30:56.704Z,15.20
2019-06-01T06:33:26.354Z,15.70
2019-06-01T06:35:56.087Z,15.03
2019-06-01T06:38:25.853Z,14.35
2019-06-01T06:40:56.270Z,13.98
2019-06-01T06:43:32.822Z,15.05
2019-06-01T06:45:57.770Z,13.20
2019-06-01T06:48:29.032Z,12.10
2019-06-01T06:50:58.712Z,13.30
2019-06-01T06:53:34.932Z,11.15
2019-06-01T06:55:59.765Z,13.98
2019-06-01T06:58:29.494Z,12.68
2019-06-01T07:00:59.133Z,13.53
2019-06-01T07:03:28.893Z,12.28
2019-06-01T07:05:58.550Z,9.75
2019-06-01T07:08:28.259Z,12.43
2019-06-01T07:10:57.992Z,11.10
2019-06-01T07:13:27.693Z,12.70
2019-06-01T07:15:57.426Z,15.28
2019-06-01T07:18:27.774Z,11.22
2019-06-01T07:20:57.733Z,8.68
2019-06-01T07:23:27.973Z,9.53
2019-06-01T07:25:57.898Z,9.68
2019-06-01T07:28:28.352Z,7.85
2019-06-01T07:30:58.272Z,10.20
2019-06-01T07:33:28.566Z,8.80
2019-06-01T07:35:58.497Z,8.13
2019-06-01T07:38:28.905Z,7.00
2019-06-01T07:40:58.815Z,9.75
2019-06-01T07:43:29.013Z,7.15
2019-06-01T07:45:58.995Z,7.70
2019-06-01T07:48:29.183Z,6.65
2019-06-01T07:50:59.143Z,6.97
2019-06-01T07:53:29.551Z,6.80
2019-06-01T07:55:59.442Z,6.60
2019-06-01T07:58:29.092Z,7.20
2019-06-01T08:00:58.887Z,8.10
2019-06-01T08:03:30.871Z,8.65
2019-06-01T08:05:59.837Z,7.65
2019-06-01T08:08:29.612Z,6.40
2019-06-01T08:10:59.447Z,7.72
2019-06-01T08:13:32.287Z,6.50
2019-06-01T08:16:00.449Z,7.17
2019-06-01T08:18:30.195Z,7.80
2019-06-01T08:20:59.773Z,9.13
2019-06-01T08:23:30.275Z,7.05
2019-06-01T08:26:00.072Z,8.13
2019-06-01T08:28:32.762Z,7.05
2019-06-01T08:31:02.544Z,7.53
2019-06-01T08:33:34.645Z,7.50
2019-06-01T08:36:03.482Z,6.78
2019-06-01T08:38:33.794Z,6.60
2019-06-01T08:41:03.633Z,9.43
2019-06-01T08:43:33.929Z,6.87
2019-06-01T08:46:03.711Z,10.03
2019-06-01T08:48:34.080Z,6.92
2019-06-01T08:51:03.864Z,7.50
2019-06-01T08:53:34.249Z,7.15
2019-06-01T08:56:04.087Z,7.65
2019-06-01T08:58:34.810Z,6.05
2019-06-01T09:01:04.854Z,6.17
2019-06-01T09:03:39.239Z,5.92
2019-06-01T09:06:06.247Z,5.12
2019-06-01T09:08:35.996Z,6.28
2019-06-01T09:11:05.882Z,8.28
2019-06-01T09:13:35.609Z,6.22
2019-06-01T09:16:05.725Z,5.62
2019-06-01T09:18:35.911Z,5.12
2019-06-01T09:21:06.170Z,4.58
2019-06-01T09:23:37.073Z,4.90
2019-06-01T09:26:07.063Z,4.53
2019-06-01T09:28:36.697Z,4.85
2019-06-01T09:31:06.463Z,4.90
2019-06-01T09:33:36.877Z,4.37
2019-06-01T09:36:07.060Z,4.95
2019-06-01T09:38:37.799Z,5.00
2019-06-01T09:41:07.577Z,4.12
2019-06-01T09:43:37.224Z,4.00
2019-06-01T09:46:06.989Z,6.47
2019-06-01T09:48:37.849Z,4.58
2019-06-01T09:51:07.720Z,7.03
2019-06-01T09:53:38.089Z,4.92
2019-06-01T09:56:08.010Z,4.33
2019-06-01T09:58:38.838Z,4.83
2019-06-01T10:01:08.576Z,5.20
2019-06-01T10:03:38.619Z,4.47
2019-06-01T10:06:08.398Z,4.30
2019-06-01T10:08:38.315Z,5.92
2019-06-01T10:11:07.963Z,5.78
2019-06-01T10:13:38.388Z,5.30
2019-06-01T10:16:08.291Z,5.25
2019-06-01T10:18:39.006Z,5.53
2019-06-01T10:21:08.872Z,5.35
2019-06-01T10:23:39.631Z,4.83
2019-06-01T10:26:09.317Z,5.80
2019-06-01T10:28:39.805Z,4.90
2019-06-01T10:31:09.562Z,3.98
2019-06-01T10:33:40.260Z,4.72
2019-06-01T10:36:19.737Z,3.58
2019-06-01T10:38:41.496Z,4.25
2019-06-01T10:41:11.320Z,4.78
2019-06-01T10:43:41.771Z,6.33
2019-06-01T10:46:11.651Z,5.58
2019-06-01T10:48:42.193Z,3.52
2019-06-01T10:51:12.038Z,4.90
2019-06-01T10:53:43.654Z,4.28
2019-06-01T10:56:13.138Z,6.53
2019-06-01T10:58:56.789Z,4.92
2019-06-01T11:01:14.101Z,3.80
2019-06-01T11:03:43.929Z,4.47
2019-06-01T11:06:13.592Z,3.20
2019-06-01T11:08:43.298Z,3.70
2019-06-01T11:11:12.906Z,5.20
2019-06-01T11:13:43.286Z,3.58
2019-06-01T11:16:13.221Z,3.37
2019-06-01T11:18:43.602Z,3.20
2019-06-01T11:21:13.501Z,3.27
2019-06-01T11:23:46.098Z,4.90
2019-06-01T11:26:14.537Z,3.17
2019-06-01T11:28:44.406Z,2.90
2019-06-01T11:31:14.280Z,3.62
2019-06-01T11:33:44.374Z,3.17
2019-06-01T11:36:14.109Z,2.52
2019-06-01T11:38:44.896Z,2.92
2019-06-01T11:41:18.275Z,3.00
2019-06-01T11:43:46.298Z,5.12
2019-06-01T11:46:15.933Z,3.25
2019-06-01T11:48:45.664Z,3.60
2019-06-01T11:51:15.282Z,3.40
2019-06-01T11:53:45.706Z,3.12
2019-06-01T11:56:15.548Z,3.15
2019-06-01T11:58:45.632Z,2.90
2019-06-01T12:01:15.435Z,4.05
2019-06-01T12:03:46.230Z,3.70
2019-06-01T12:06:16.064Z,3.47
2019-06-01T12:08:46.357Z,3.05
2019-06-01T12:11:16.223Z,3.02
2019-06-01T12:13:46.503Z,3.33
2019-06-01T12:16:16.460Z,3.40
2019-06-01T12:18:46.874Z,3.50
2019-06-01T12:21:16.701Z,4.22
2019-06-01T12:23:47.486Z,4.83
2019-06-01T12:26:17.282Z,3.35
2019-06-01T12:28:47.972Z,4.90
2019-06-01T12:31:17.780Z,3.42
2019-06-01T12:33:48.700Z,2.90
2019-06-01T12:36:18.525Z,3.50
2019-06-01T12:38:54.344Z,3.10
2019-06-01T12:41:24.878Z,3.55
2019-06-01T12:44:13.855Z,3.08
2019-06-01T12:46:44.153Z,3.45
2019-06-01T12:49:13.896Z,3.77
2019-06-01T12:51:44.548Z,3.50
2019-06-01T12:54:14.431Z,3.60
2019-06-01T12:56:44.745Z,5.17
2019-06-01T12:59:14.625Z,3.12
2019-06-01T13:01:45.139Z,3.25
2019-06-01T13:04:15.043Z,3.15
2019-06-01T13:06:45.736Z,3.12
2019-06-01T13:09:16.034Z,3.42
2019-06-01T13:11:45.637Z,3.47
2019-06-01T13:14:15.402Z,3.30
2019-06-01T13:16:50.773Z,3.62
2019-06-01T13:19:16.400Z,3.15
2019-06-01T13:21:47.221Z,3.25
2019-06-01T13:24:17.062Z,3.25
2019-06-01T13:26:47.825Z,2.83
2019-06-01T13:29:17.776Z,2.75
2019-06-01T13:31:48.224Z,4.37
2019-06-01T13:34:18.020Z,4.50
2019-06-01T13:36:48.951Z,3.17
2019-06-01T13:39:18.777Z,3.77
2019-06-01T13:41:49.498Z,3.17
2019-06-01T13:44:19.242Z,3.17
2019-06-01T13:46:49.483Z,3.05
2019-06-01T13:49:19.369Z,3.12
2019-06-01T13:51:50.414Z,4.17
2019-06-01T13:54:20.241Z,5.35
2019-06-01T13:56:50.961Z,5.42
2019-06-01T13:59:20.773Z,3.20
2019-06-01T14:01:51.421Z,4.30
2019-06-01T14:04:21.159Z,3.67
2019-06-01T14:06:51.390Z,3.25
2019-06-01T14:09:21.927Z,22.10
2019-06-01T14:11:53.412Z,3.02
2019-06-01T14:14:23.392Z,4.22
2019-06-01T14:16:53.594Z,3.08
2019-06-01T14:19:23.319Z,4.15
2019-06-01T14:21:54.219Z,4.12
2019-06-01T14:24:24.106Z,3.92
2019-06-01T14:26:54.389Z,2.27
2019-06-01T14:29:24.076Z,5.97
2019-06-01T14:31:55.389Z,5.15
2019-06-01T14:34:25.217Z,7.97
2019-06-01T14:36:54.874Z,2.75
2019-06-01T14:39:24.622Z,2.72
2019-06-01T14:41:55.522Z,2.85
2019-06-01T14:44:25.381Z,2.75
2019-06-01T14:47:04.977Z,3.58
2019-06-01T14:49:26.388Z,2.60
2019-06-01T14:51:56.147Z,2.77
2019-06-01T14:54:27.187Z,3.17
2019-06-01T14:56:58.798Z,3.17
2019-06-01T14:59:30.069Z,2.67
2019-06-01T15:02:00.987Z,2.67
2019-06-01T15:04:32.543Z,2.40
2019-06-01T15:07:04.632Z,2.35
2019-06-01T15:09:36.614Z,10.72
2019-06-01T15:12:08.684Z,2.27
2019-06-01T15:14:40.426Z,2.35
2019-06-01T15:17:12.062Z,9.68
2019-06-01T15:19:41.771Z,2.20
2019-06-01T15:22:11.406Z,5.33
2019-06-01T15:24:41.033Z,2.50
2019-06-01T15:27:10.639Z,2.42
2019-06-01T15:29:40.325Z,2.37
2019-06-01T15:32:09.993Z,2.72
2019-06-01T15:34:39.726Z,2.20
2019-06-01T15:37:09.384Z,2.65
2019-06-01T15:39:39.071Z,4.78
2019-06-01T15:42:08.658Z,2.10
2019-06-01T15:44:38.349Z,4.67
2019-06-01T15:47:07.949Z,2.87
2019-06-01T15:49:37.676Z,2.33
2019-06-01T15:52:07.258Z,2.52
2019-06-01T15:54:36.962Z,2.83
2019-06-01T15:57:06.693Z,9.75
2019-06-01T15:59:36.418Z,2.45
2019-06-01T16:02:06.057Z,3.72
2019-06-01T16:04:35.718Z,2.10
2019-06-01T16:07:05.403Z,2.77
2019-06-01T16:09:42.671Z,2.30
2019-06-01T16:12:06.639Z,2.92
2019-06-01T16:14:36.258Z,2.52
2019-06-01T16:17:06.092Z,5.45
2019-06-01T16:19:35.701Z,2.27
2019-06-01T16:22:05.598Z,2.30
2019-06-01T16:24:35.257Z,2.90
2019-06-01T16:27:04.973Z,2.62
2019-06-01T16:29:34.596Z,2.45
2019-06-01T16:32:05.075Z,2.40
2019-06-01T16:34:34.890Z,3.10
2019-06-01T16:37:05.331Z,2.45
2019-06-01T16:39:35.071Z,3.05
2019-06-01T16:42:06.085Z,3.37
2019-06-01T16:44:35.976Z,3.42
2019-06-01T16:47:06.113Z,2.35
2019-06-01T16:49:35.932Z,3.75
2019-06-01T16:52:07.032Z,3.45
2019-06-01T16:54:36.876Z,7.90
2019-06-01T16:57:07.384Z,2.85
2019-06-01T16:59:37.134Z,2.50
2019-06-01T17:02:07.906Z,2.00
2019-06-01T17:04:37.739Z,2.17
2019-06-01T17:07:08.851Z,3.65
2019-06-01T17:09:38.627Z,2.45
2019-06-01T17:12:08.291Z,2.42
2019-06-01T17:14:37.913Z,2.02
2019-06-01T17:17:07.618Z,3.67
2019-06-01T17:19:37.366Z,2.50
2019-06-01T17:22:07.681Z,2.08
2019-06-01T17:24:37.478Z,2.20
2019-06-01T17:27:08.235Z,3.27
2019-06-01T17:29:38.063Z,2.15
2019-06-01T17:32:20.130Z,3.40
2019-06-01T17:34:38.991Z,1.95
2019-06-01T17:37:08.996Z,2.02
2019-06-01T17:39:38.735Z,2.00
2019-06-01T17:42:08.684Z,2.08
2019-06-01T17:44:38.448Z,2.25
2019-06-01T17:47:08.253Z,2.20
2019-06-01T17:49:37.801Z,2.40
2019-06-01T17:52:07.800Z,2.27
2019-06-01T17:54:37.592Z,1.92
2019-06-01T17:57:07.376Z,2.20
2019-06-01T17:59:36.969Z,2.52
2019-06-01T18:02:07.856Z,2.02
2019-06-01T18:04:37.716Z,2.10
2019-06-01T18:07:07.935Z,3.02
2019-06-01T18:09:37.738Z,3.62
2019-06-01T18:12:08.134Z,2.05
2019-06-01T18:14:37.763Z,2.72
2019-06-01T18:17:08.256Z,2.33
2019-06-01T18:19:37.987Z,2.20
2019-06-01T18:22:08.759Z,2.75
2019-06-01T18:24:38.446Z,2.02
2019-06-01T18:27:08.510Z,2.98
2019-06-01T18:29:41.167Z,3.55
2019-06-01T18:32:09.888Z,2.67
2019-06-01T18:34:39.618Z,4.25
2019-06-01T18:37:09.318Z,2.70
2019-06-01T18:39:38.994Z,6.60
2019-06-01T18:42:08.635Z,3.65
2019-06-01T18:44:38.363Z,5.20
2019-06-01T18:47:07.975Z,6.10
2019-06-01T18:49:37.694Z,5.87
2019-06-01T18:52:08.543Z,5.58
2019-06-01T18:54:38.510Z,3.90
2019-06-01T18:57:15.526Z,3.37
2019-06-01T18:59:39.470Z,3.37
2019-06-01T19:02:10.420Z,3.20
2019-06-01T19:04:40.231Z,2.98
2019-06-01T19:07:11.193Z,2.92
2019-06-01T19:09:40.859Z,2.67
2019-06-01T19:12:11.344Z,3.45
2019-06-01T19:14:41.190Z,2.72
2019-06-01T19:17:12.247Z,2.87
2019-06-01T19:19:41.997Z,3.02
2019-06-01T19:22:12.506Z,4.40
2019-06-01T19:24:42.205Z,3.10
2019-06-01T19:27:12.847Z,2.50
2019-06-01T19:29:42.541Z,2.65
2019-06-01T19:32:12.903Z,2.90
2019-06-01T19:34:42.614Z,2.90
2019-06-01T19:37:13.076Z,14.47
2019-06-01T19:39:43.420Z,3.22
2019-06-01T19:42:13.489Z,3.58
2019-06-01T19:44:43.222Z,6.85
2019-06-01T19:47:13.918Z,3.47
2019-06-01T19:49:44.080Z,4.35
2019-06-01T19:52:14.789Z,3.80
2019-06-01T19:54:44.580Z,3.15
2019-06-01T19:57:18.393Z,3.52
2019-06-01T19:59:46.452Z,3.50
2019-06-01T20:02:30.867Z,3.42
2019-06-01T20:04:47.454Z,3.30
2019-06-01T20:07:17.263Z,3.27
2019-06-01T20:09:46.839Z,3.37
2019-06-01T20:12:18.567Z,3.47
2019-06-01T20:14:47.963Z,3.27
2019-06-01T20:17:17.855Z,3.98
2019-06-01T20:19:47.804Z,3.92
2019-06-01T20:22:17.458Z,4.55
2019-06-01T20:24:47.173Z,6.28
2019-06-01T20:27:17.478Z,5.95
2019-06-01T20:29:47.425Z,3.85
2019-06-01T20:32:18.092Z,4.65
2019-06-01T20:34:47.978Z,4.85
2019-06-01T20:37:18.113Z,5.05
2019-06-01T20:39:48.005Z,5.75
2019-06-01T20:42:26.381Z,6.72
2019-06-01T20:44:48.908Z,5.03
2019-06-01T20:47:18.958Z,10.48
2019-06-01T20:49:49.272Z,4.28
2019-06-01T20:52:19.099Z,4.85
2019-06-01T20:54:48.633Z,4.97
2019-06-01T20:57:19.639Z,5.08
2019-06-01T20:59:49.415Z,4.00
2019-06-01T21:02:20.124Z,4.70
2019-06-01T21:04:49.725Z,4.35
2019-06-01T21:07:19.938Z,4.87
2019-06-01T21:09:49.691Z,6.85
2019-06-01T21:12:20.291Z,7.20
2019-06-01T21:14:50.882Z,4.30
2019-06-01T21:17:20.669Z,4.33
2019-06-01T21:19:50.550Z,7.53
2019-06-01T21:22:20.629Z,5.67
2019-06-01T21:24:50.613Z,6.40
2019-06-01T21:27:20.763Z,5.28
2019-06-01T21:29:50.752Z,4.30
2019-06-01T21:32:21.357Z,6.05
2019-06-01T21:34:51.289Z,5.10
2019-06-01T21:37:21.609Z,6.72
2019-06-01T21:39:51.648Z,6.72
2019-06-01T21:42:21.727Z,6.95
2019-06-01T21:44:51.532Z,5.55
2019-06-01T21:47:21.783Z,4.60
2019-06-01T21:49:51.561Z,7.45
2019-06-01T21:52:22.069Z,4.80
2019-06-01T21:54:51.767Z,5.35
2019-06-01T21:57:22.322Z,5.15
2019-06-01T21:59:52.143Z,5.40
2019-06-01T22:02:22.969Z,5.75
2019-06-01T22:04:52.809Z,5.42
2019-06-01T22:07:23.262Z,6.42
2019-06-01T22:09:52.993Z,5.53
2019-06-01T22:12:23.624Z,5.17
2019-06-01T22:14:53.389Z,6.72
2019-06-01T22:17:23.739Z,7.12
2019-06-01T22:19:53.483Z,4.47
2019-06-01T22:22:23.821Z,5.40
2019-06-01T22:24:53.572Z,6.08
2019-06-01T22:27:24.327Z,5.65
2019-06-01T22:29:54.055Z,7.40
2019-06-01T22:32:27.407Z,5.40
2019-06-01T22:34:55.084Z,5.75
2019-06-01T22:37:25.792Z,7.50
2019-06-01T22:39:55.489Z,7.17
2019-06-01T22:42:26.207Z,8.10
2019-06-01T22:44:56.267Z,5.03
2019-06-01T22:47:26.628Z,6.42
2019-06-01T22:49:56.465Z,5.00
2019-06-01T22:52:27.062Z,5.25
2019-06-01T22:54:56.706Z,8.35
2019-06-01T22:57:26.648Z,5.78
2019-06-01T22:59:56.776Z,5.62
2019-06-01T23:02:27.755Z,8.33
2019-06-01T23:04:57.629Z,6.37
2019-06-01T23:07:27.360Z,6.47
2019-06-01T23:09:57.021Z,5.50
2019-06-01T23:12:27.608Z,6.65
2019-06-01T23:14:57.399Z,5.50
2019-06-01T23:17:27.966Z,5.55
2019-06-01T23:19:57.940Z,5.65
2019-06-01T23:22:28.205Z,6.50
2019-06-01T23:24:58.340Z,6.45
2019-06-01T23:27:28.281Z,6.55
2019-06-01T23:29:58.516Z,6.42
2019-06-01T23:32:28.530Z,4.85
2019-06-01T23:34:58.720Z,5.15
2019-06-01T23:37:28.834Z,6.17
2019-06-01T23:39:59.244Z,7.28
2019-06-01T23:42:28.920Z,5.55
2019-06-01T23:44:58.894Z,6.20
2019-06-01T23:47:29.372Z,8.00
2019-06-01T23:49:59.314Z,5.35
2019-06-01T23:52:29.583Z,5.40
2019-06-01T23:54:59.526Z,5.83
2019-06-01T23:57:30.060Z,5.60
